Time;durP1;ratioP1;P1;durP2;ratioP2;P2;SDS_P1;SDS_P2;PMS_P1;PMS_P2;Temp;Humidity;BMP_temperature;BMP_pressure;BME280_temperature;BME280_humidity;BME280_pressure;Samples;Min_cycle;Max_cycle;Signal;HPM_P1;HPM_P2
2022/03/24 00:01:29;;;;;;;16.80;14.00;;;10.30;51.30;;;;;;4982091;28;20696;-89
2022/03/24 00:03:55;;;;;;;15.17;13.87;;;10.40;51.30;;;;;;4982597;28;20207;-89
2022/03/24 00:06:20;;;;;;;16.23;14.00;;;10.40;51.40;;;;;;4990284;28;20230;-90
2022/03/24 00:08:46;;;;;;;16.27;14.73;;;10.30;51.50;;;;;;4967925;28;20229;-90
2022/03/24 00:11:12;;;;;;;16.43;14.70;;;10.40;52.00;;;;;;4989727;28;20198;-90
2022/03/24 00:13:37;;;;;;;17.10;15.10;;;10.30;51.80;;;;;;4992913;28;20199;-89
2022/03/24 00:16:04;;;;;;;16.60;14.93;;;10.20;51.40;;;;;;4999343;28;20218;-90
2022/03/24 00:18:32;;;;;;;16.53;14.90;;;10.00;51.70;;;;;;4999330;28;20225;-90
2022/03/24 00:21:01;;;;;;;14.27;12.90;;;9.70;53.20;;;;;;5000605;28;20195;-89
2022/03/24 00:23:27;;;;;;;15.87;13.73;;;9.60;53.90;;;;;;4997931;28;20198;-90
2022/03/24 00:25:53;;;;;;;15.50;13.13;;;9.60;53.90;;;;;;4983782;28;20214;-89
2022/03/24 00:28:19;;;;;;;15.53;13.70;;;9.60;53.80;;;;;;4980067;28;20216;-89
2022/03/24 00:30:45;;;;;;;14.43;12.90;;;9.70;53.70;;;;;;4986533;28;20190;-89
2022/03/24 00:33:11;;;;;;;14.80;13.33;;;9.80;52.80;;;;;;5010418;28;20177;-89
2022/03/24 00:35:38;;;;;;;17.13;13.40;;;9.80;52.80;;;;;;4999906;28;20213;-89
2022/03/24 00:38:05;;;;;;;15.10;13.63;;;9.90;52.40;;;;;;5009196;28;20193;-89
2022/03/24 00:40:32;;;;;;;15.33;13.83;;;9.80;52.60;;;;;;4997504;28;20202;-90
2022/03/24 00:42:59;;;;;;;14.77;13.27;;;9.80;52.70;;;;;;4988503;28;20210;-90
2022/03/24 00:45:25;;;;;;;15.17;13.67;;;9.80;53.90;;;;;;4975578;28;20574;-90
2022/03/24 00:47:51;;;;;;;14.63;13.23;;;9.80;52.70;;;;;;4984311;28;20222;-90
2022/03/24 00:50:18;;;;;;;16.13;13.53;;;9.90;53.00;;;;;;5003270;28;20182;-90
2022/03/24 00:52:45;;;;;;;15.33;13.00;;;9.80;53.20;;;;;;4995008;28;20192;-89
2022/03/24 00:55:17;;;;;;;14.97;13.37;;;9.70;53.70;;;;;;4992363;28;20293;-90
2022/03/24 00:57:45;;;;;;;18.43;12.80;;;9.60;54.50;;;;;;5000036;28;20195;-88
2022/03/24 01:00:15;;;;;;;13.37;12.07;;;9.50;54.50;;;;;;4983267;28;20683;-89
2022/03/24 01:02:45;;;;;;;14.50;13.03;;;9.40;54.90;;;;;;4985675;28;20206;-88
2022/03/24 01:05:15;;;;;;;15.43;13.20;;;9.40;54.90;;;;;;4985973;28;20295;-89
2022/03/24 01:07:42;;;;;;;14.37;12.87;;;9.40;54.80;;;;;;4993400;28;20262;-89
2022/03/24 01:10:09;;;;;;;14.57;13.17;;;9.40;54.70;;;;;;5008001;28;20187;-89
2022/03/24 01:12:36;;;;;;;14.23;12.83;;;9.30;54.70;;;;;;4983857;28;20182;-88
2022/03/24 01:15:04;;;;;;;14.37;12.87;;;9.40;54.50;;;;;;5007257;28;20186;-89
2022/03/24 01:17:31;;;;;;;15.87;13.47;;;9.30;54.40;;;;;;5005831;28;20200;-89
2022/03/24 01:19:57;;;;;;;15.60;13.77;;;9.30;54.20;;;;;;4997877;28;20760;-89
2022/03/24 01:22:23;;;;;;;14.30;12.90;;;9.30;54.60;;;;;;4994530;28;20194;-89
2022/03/24 01:24:49;;;;;;;14.93;13.33;;;9.30;54.90;;;;;;4981968;28;20191;-89
2022/03/24 01:27:16;;;;;;;15.47;13.90;;;9.30;55.40;;;;;;4982581;28;20210;-89
2022/03/24 01:29:42;;;;;;;14.87;13.27;;;9.10;54.70;;;;;;4988926;28;20635;-89
2022/03/24 01:32:08;;;;;;;15.60;14.10;;;9.10;55.10;;;;;;4987987;28;20179;-90
2022/03/24 01:34:34;;;;;;;15.33;13.87;;;9.10;55.00;;;;;;4990933;28;20194;-89
2022/03/24 01:37:00;;;;;;;15.57;13.97;;;9.10;55.10;;;;;;4976378;28;20289;-89
2022/03/24 01:39:26;;;;;;;16.90;13.50;;;9.10;55.20;;;;;;4987942;28;20222;-89
2022/03/24 01:41:52;;;;;;;16.67;14.97;;;9.00;55.10;;;;;;4984968;28;20222;-89
2022/03/24 01:44:21;;;;;;;14.80;13.27;;;9.00;54.80;;;;;;4993574;28;20191;-89
2022/03/24 01:46:58;;;;;;;15.03;13.60;;;8.90;55.10;;;;;;4993096;28;20577;-89
2022/03/24 01:49:25;;;;;;;15.47;13.87;;;8.80;55.20;;;;;;4985559;28;20293;-91
2022/03/24 01:51:51;;;;;;;15.50;13.90;;;8.80;55.40;;;;;;4993439;28;20183;-88
2022/03/24 01:54:18;;;;;;;16.83;13.90;;;8.80;55.20;;;;;;4975492;28;20632;-89
2022/03/24 01:56:44;;;;;;;16.10;13.50;;;8.80;55.00;;;;;;4984432;28;20218;-91
2022/03/24 01:59:13;;;;;;;17.23;14.03;;;8.70;55.40;;;;;;4983344;28;20205;-89
2022/03/24 02:01:38;;;;;;;15.73;13.73;;;8.70;55.50;;;;;;4998093;28;20186;-88
2022/03/24 02:04:05;;;;;;;16.43;14.00;;;8.80;55.40;;;;;;4978899;28;20648;-88
2022/03/24 02:06:34;;;;;;;17.20;15.50;;;8.70;55.40;;;;;;4972945;28;20218;-88
2022/03/24 02:09:00;;;;;;;16.93;14.67;;;8.60;55.80;;;;;;4976156;28;20584;-88
2022/03/24 02:11:27;;;;;;;16.37;13.80;;;8.60;55.90;;;;;;4978222;28;20230;-88
2022/03/24 02:13:55;;;;;;;15.97;14.47;;;8.60;55.90;;;;;;4988205;28;20668;-88
2022/03/24 02:16:27;;;;;;;15.07;13.73;;;8.50;56.50;;;;;;5006200;28;20575;-88
2022/03/24 02:18:59;;;;;;;15.43;13.80;;;8.50;56.30;;;;;;4988335;28;20641;-88
2022/03/24 02:21:27;;;;;;;16.07;13.17;;;8.30;56.70;;;;;;4982370;28;20205;-88
2022/03/24 02:23:53;;;;;;;15.73;14.17;;;8.20;56.80;;;;;;4981843;28;20186;-88
2022/03/24 02:26:19;;;;;;;15.63;14.13;;;8.20;56.90;;;;;;4972956;28;20213;-88
2022/03/24 02:28:45;;;;;;;16.50;14.70;;;8.30;57.40;;;;;;4955621;28;20617;-88
2022/03/24 02:31:12;;;;;;;16.03;14.30;;;8.30;56.60;;;;;;4973153;28;20542;-88
2022/03/24 02:33:38;;;;;;;15.23;13.43;;;8.30;56.50;;;;;;4959560;28;20207;-91
2022/03/24 02:36:04;;;;;;;15.80;14.10;;;8.30;56.60;;;;;;4983388;28;20202;-88
2022/03/24 02:38:31;;;;;;;15.77;14.20;;;8.30;56.50;;;;;;4988014;28;20753;-88
2022/03/24 02:40:57;;;;;;;17.10;13.53;;;8.30;56.90;;;;;;4992188;28;20190;-91
2022/03/24 02:43:24;;;;;;;15.93;14.33;;;8.30;56.30;;;;;;4971891;28;20682;-89
2022/03/24 02:45:53;;;;;;;16.37;14.63;;;8.00;56.80;;;;;;4972978;28;20318;-89
2022/03/24 02:48:21;;;;;;;17.77;15.57;;;7.70;58.10;;;;;;4981330;28;20837;-88
2022/03/24 02:50:47;;;;;;;16.27;13.93;;;7.50;59.00;;;;;;4971793;28;20191;-88
2022/03/24 02:53:13;;;;;;;18.67;14.40;;;7.50;59.60;;;;;;4991797;28;20653;-89
2022/03/24 02:55:39;;;;;;;16.77;13.17;;;7.50;58.80;;;;;;4981974;28;20199;-87
2022/03/24 02:58:05;;;;;;;14.67;13.30;;;7.50;59.80;;;;;;4988100;28;20263;-88
2022/03/24 03:00:30;;;;;;;16.87;14.53;;;7.60;59.60;;;;;;4996425;28;20191;-90
2022/03/24 03:02:56;;;;;;;17.07;13.37;;;7.60;58.80;;;;;;4990060;28;20198;-88
2022/03/24 03:05:22;;;;;;;16.67;14.67;;;7.50;59.50;;;;;;4972839;28;20745;-88
2022/03/24 03:07:48;;;;;;;18.07;13.50;;;7.60;59.20;;;;;;4980188;28;20270;-88
2022/03/24 03:10:14;;;;;;;14.30;12.87;;;7.50;59.80;;;;;;4990319;28;20186;-89
2022/03/24 03:12:44;;;;;;;20.83;14.27;;;7.50;59.60;;;;;;5002756;28;20187;-88
2022/03/24 03:15:10;;;;;;;16.20;14.60;;;7.50;59.80;;;;;;4993994;28;20253;-89
2022/03/24 03:17:37;;;;;;;16.93;14.80;;;7.50;59.60;;;;;;4991944;28;20178;-90
2022/03/24 03:20:07;;;;;;;15.67;14.07;;;7.50;59.50;;;;;;4986857;28;20182;-90
2022/03/24 03:22:32;;;;;;;14.83;13.23;;;7.60;59.50;;;;;;4971189;28;20187;-90
2022/03/24 03:24:59;;;;;;;15.40;13.90;;;7.70;59.00;;;;;;4990708;28;20190;-90
2022/03/24 03:27:27;;;;;;;15.03;13.50;;;7.80;58.60;;;;;;4958721;28;20187;-90
2022/03/24 03:29:53;;;;;;;15.43;14.03;;;7.70;58.60;;;;;;4970576;28;20182;-90
2022/03/24 03:32:21;;;;;;;15.93;13.40;;;7.70;58.70;;;;;;4971180;28;20824;-90
2022/03/24 03:34:46;;;;;;;15.53;13.93;;;7.70;59.00;;;;;;4992495;28;20273;-90
2022/03/24 03:37:12;;;;;;;14.90;13.37;;;7.50;59.10;;;;;;4976772;28;20322;-90
2022/03/24 03:39:38;;;;;;;15.73;13.30;;;7.50;59.30;;;;;;4994963;28;20190;-90
2022/03/24 03:42:04;;;;;;;14.67;12.73;;;7.40;60.00;;;;;;4995202;28;20189;-89
2022/03/24 03:44:30;;;;;;;15.80;13.80;;;7.40;59.80;;;;;;4992832;28;20187;-90
2022/03/24 03:46:56;;;;;;;14.67;13.10;;;7.30;60.20;;;;;;4982910;28;20294;-89
2022/03/24 03:49:22;;;;;;;15.20;13.20;;;7.20;60.10;;;;;;4983504;28;20258;-90
2022/03/24 03:51:48;;;;;;;15.67;13.97;;;6.90;61.40;;;;;;4965813;28;20283;-90
2022/03/24 03:54:14;;;;;;;15.20;13.70;;;7.00;62.20;;;;;;4983158;28;20185;-90
2022/03/24 03:56:40;;;;;;;14.97;13.40;;;7.10;61.40;;;;;;4966396;28;20219;-89
2022/03/24 03:59:07;;;;;;;15.47;13.93;;;7.20;60.90;;;;;;4989269;28;20250;-90
2022/03/24 04:01:33;;;;;;;13.83;12.40;;;7.10;60.60;;;;;;4966489;28;20667;-90
2022/03/24 04:03:59;;;;;;;15.50;13.90;;;7.20;61.00;;;;;;4979372;28;20273;-89
2022/03/24 04:06:25;;;;;;;16.23;14.30;;;7.10;61.20;;;;;;4998598;28;20214;-89
2022/03/24 04:08:51;;;;;;;14.43;13.00;;;7.10;60.20;;;;;;5010232;28;20185;-89
2022/03/24 04:11:16;;;;;;;14.33;12.83;;;7.00;61.40;;;;;;4987884;28;20194;-90
2022/03/24 04:13:43;;;;;;;15.37;13.47;;;7.00;61.40;;;;;;4982890;28;20191;-90
2022/03/24 04:16:13;;;;;;;18.70;13.73;;;7.10;61.30;;;;;;4994549;28;20199;-90
2022/03/24 04:18:44;;;;;;;14.50;13.00;;;7.10;60.80;;;;;;4973494;28;20191;-89
2022/03/24 04:21:10;;;;;;;14.80;13.27;;;7.10;60.90;;;;;;4978423;28;20190;-89
2022/03/24 04:23:38;;;;;;;15.10;13.57;;;7.10;60.60;;;;;;4968184;28;20201;-90
2022/03/24 04:26:04;;;;;;;15.53;13.33;;;7.00;61.00;;;;;;4973175;28;20223;-90
2022/03/24 04:28:30;;;;;;;15.37;13.53;;;7.00;61.10;;;;;;4975136;28;20187;-90
2022/03/24 04:30:56;;;;;;;15.17;13.67;;;7.00;60.80;;;;;;4983519;28;20186;-90
2022/03/24 04:33:22;;;;;;;16.77;14.13;;;7.10;60.40;;;;;;4976590;28;20194;-90
2022/03/24 04:35:47;;;;;;;14.80;13.40;;;7.00;60.40;;;;;;4993329;28;20245;-90
2022/03/24 04:38:14;;;;;;;14.13;12.63;;;7.00;60.60;;;;;;4969109;28;20205;-90
2022/03/24 04:40:40;;;;;;;30.00;16.20;;;7.10;60.90;;;;;;4990483;28;20183;-90
2022/03/24 04:43:06;;;;;;;14.23;12.63;;;7.00;60.50;;;;;;4976863;28;20244;-90
2022/03/24 04:45:33;;;;;;;15.07;13.33;;;6.80;62.10;;;;;;4976251;28;20217;-90
2022/03/24 04:48:00;;;;;;;16.07;13.40;;;6.80;61.60;;;;;;4960935;28;20193;-90
2022/03/24 04:50:26;;;;;;;16.80;14.30;;;6.80;61.40;;;;;;4987447;28;20253;-90
2022/03/24 04:52:52;;;;;;;15.70;13.43;;;6.80;61.80;;;;;;4983295;28;20190;-90
2022/03/24 04:55:18;;;;;;;18.37;14.43;;;6.80;61.00;;;;;;4989050;28;20222;-90
2022/03/24 04:57:44;;;;;;;15.53;13.53;;;6.80;61.30;;;;;;4974302;28;20245;-89
2022/03/24 05:00:11;;;;;;;18.60;14.73;;;6.80;61.80;;;;;;4985468;28;20205;-90
2022/03/24 05:02:38;;;;;;;16.13;14.53;;;6.80;61.80;;;;;;4995196;28;20192;-90
2022/03/24 05:05:05;;;;;;;15.73;13.87;;;6.70;61.90;;;;;;5011995;28;20218;-90
2022/03/24 05:07:30;;;;;;;15.73;14.00;;;6.70;62.00;;;;;;4999309;28;20194;-90
2022/03/24 05:09:56;;;;;;;15.40;13.73;;;6.60;61.90;;;;;;5008639;28;20190;-90
2022/03/24 05:12:22;;;;;;;16.23;14.63;;;6.60;62.20;;;;;;4981868;28;20704;-90
2022/03/24 05:14:50;;;;;;;15.57;14.03;;;6.60;62.30;;;;;;4996566;28;20498;-90
2022/03/24 05:17:16;;;;;;;15.53;13.70;;;6.60;62.00;;;;;;4983767;28;20669;-90
2022/03/24 05:19:44;;;;;;;19.43;14.47;;;6.70;62.00;;;;;;4973872;28;20720;-90
2022/03/24 05:22:11;;;;;;;17.20;14.30;;;6.60;62.50;;;;;;4983898;28;20242;-90
2022/03/24 05:24:41;;;;;;;17.10;13.97;;;6.60;62.20;;;;;;4990696;28;20198;-90
2022/03/24 05:27:08;;;;;;;19.67;15.27;;;6.60;62.40;;;;;;4986219;28;20227;-89
2022/03/24 05:29:34;;;;;;;20.80;18.70;;;6.60;62.30;;;;;;4983612;28;20569;-90
2022/03/24 05:32:00;;;;;;;16.50;14.80;;;6.60;62.30;;;;;;4998581;28;20205;-90
2022/03/24 05:34:26;;;;;;;17.37;14.17;;;6.30;63.40;;;;;;4981809;28;20269;-89
2022/03/24 05:36:53;;;;;;;16.23;14.53;;;6.40;63.90;;;;;;4964972;28;20214;-90
2022/03/24 05:39:19;;;;;;;17.40;13.80;;;6.30;64.50;;;;;;4999135;28;20204;-90
2022/03/24 05:41:45;;;;;;;19.40;13.77;;;6.40;63.20;;;;;;4994311;28;20190;-90
2022/03/24 05:44:10;;;;;;;18.63;15.27;;;6.40;63.30;;;;;;4987502;28;20676;-90
2022/03/24 05:46:41;;;;;;;15.57;13.97;;;6.40;63.00;;;;;;4990400;28;20226;-91
2022/03/24 05:49:08;;;;;;;19.90;14.60;;;6.40;63.00;;;;;;4977583;28;20186;-90
2022/03/24 05:51:34;;;;;;;16.07;13.30;;;6.50;63.10;;;;;;4991415;28;20190;-90
2022/03/24 05:54:00;;;;;;;16.00;14.10;;;6.50;63.30;;;;;;4978094;28;20282;-89
2022/03/24 05:56:26;;;;;;;14.23;12.80;;;6.50;62.90;;;;;;4979147;28;20203;-90
2022/03/24 05:58:52;;;;;;;16.40;14.47;;;6.50;63.10;;;;;;4985080;28;20194;-90
2022/03/24 06:01:20;;;;;;;17.50;14.00;;;6.50;63.10;;;;;;4955268;28;20214;-90
2022/03/24 06:03:47;;;;;;;14.37;12.93;;;6.60;62.80;;;;;;4976475;28;20198;-90
2022/03/24 06:06:14;;;;;;;18.27;13.13;;;6.50;64.20;;;;;;4986633;28;20213;-90
2022/03/24 06:08:43;;;;;;;14.53;13.07;;;6.50;63.80;;;;;;4990711;28;20186;-90
2022/03/24 06:11:13;;;;;;;16.67;13.30;;;6.40;64.10;;;;;;4993031;28;20560;-90
2022/03/24 06:13:40;;;;;;;14.83;13.30;;;6.50;63.90;;;;;;4979598;28;20182;-90
2022/03/24 06:16:06;;;;;;;17.63;14.50;;;6.50;63.80;;;;;;4972502;28;20206;-90
2022/03/24 06:18:32;;;;;;;15.53;12.93;;;6.60;63.40;;;;;;4990329;28;20210;-90
2022/03/24 06:21:02;;;;;;;16.37;13.70;;;6.60;64.40;;;;;;4988177;28;20250;-90
2022/03/24 06:23:28;;;;;;;15.83;14.00;;;6.60;63.90;;;;;;4978127;28;20189;-90
2022/03/24 06:25:53;;;;;;;16.80;14.40;;;6.60;63.90;;;;;;4991266;28;20217;-90
2022/03/24 06:28:19;;;;;;;15.67;13.90;;;6.70;64.20;;;;;;4988380;28;20242;-90
2022/03/24 06:30:45;;;;;;;18.27;14.93;;;6.70;64.20;;;;;;4965947;28;20198;-90
2022/03/24 06:33:11;;;;;;;17.87;14.17;;;6.60;65.00;;;;;;4971154;28;20190;-90
2022/03/24 06:35:37;;;;;;;15.93;12.97;;;6.70;65.40;;;;;;4979723;28;20233;-90
2022/03/24 06:38:03;;;;;;;16.17;14.33;;;6.70;65.20;;;;;;4989707;28;20230;-90
2022/03/24 06:40:29;;;;;;;18.13;14.57;;;6.70;64.60;;;;;;4989075;28;20189;-90
2022/03/24 06:42:55;;;;;;;16.60;13.50;;;6.70;64.70;;;;;;4989081;28;20214;-90
2022/03/24 06:45:21;;;;;;;15.50;13.77;;;6.70;65.30;;;;;;4978962;28;20264;-89
2022/03/24 06:47:47;;;;;;;16.67;15.07;;;6.80;65.50;;;;;;4989818;28;20194;-90
2022/03/24 06:50:13;;;;;;;17.83;15.00;;;6.90;66.40;;;;;;4979865;28;20221;-90
2022/03/24 06:52:40;;;;;;;17.20;15.37;;;7.00;66.60;;;;;;4991684;28;20328;-90
2022/03/24 06:55:07;;;;;;;16.83;14.63;;;7.00;67.20;;;;;;5000627;28;21512;-90
2022/03/24 06:57:33;;;;;;;17.17;15.37;;;7.00;67.80;;;;;;4980476;28;20232;-90
2022/03/24 06:59:58;;;;;;;16.97;15.17;;;7.00;68.20;;;;;;4974608;28;20641;-90
2022/03/24 07:02:24;;;;;;;18.83;15.97;;;7.00;68.50;;;;;;4994612;28;20266;-89
2022/03/24 07:04:50;;;;;;;16.27;14.47;;;7.20;67.80;;;;;;4994233;28;20307;-90
2022/03/24 07:07:16;;;;;;;17.20;15.17;;;7.40;67.50;;;;;;4999352;28;20226;-88
2022/03/24 07:09:41;;;;;;;18.87;15.63;;;7.40;68.10;;;;;;4980964;28;20229;-88
2022/03/24 07:12:07;;;;;;;17.40;15.60;;;7.40;68.00;;;;;;4982698;28;20194;-88
2022/03/24 07:14:33;;;;;;;21.27;17.03;;;7.50;68.50;;;;;;4996506;28;20191;-88
2022/03/24 07:16:59;;;;;;;21.57;16.93;;;7.50;68.40;;;;;;4998134;28;20214;-90
2022/03/24 07:19:24;;;;;;;19.07;16.97;;;7.40;68.90;;;;;;4998442;28;20651;-87
2022/03/24 07:21:50;;;;;;;19.20;17.20;;;7.50;68.30;;;;;;4998280;28;20260;-88
2022/03/24 07:24:16;;;;;;;19.20;17.17;;;7.60;68.10;;;;;;5001979;28;20520;-88
2022/03/24 07:26:42;;;;;;;18.67;16.20;;;7.70;67.10;;;;;;5003273;28;20857;-88
2022/03/24 07:29:10;;;;;;;18.87;16.87;;;7.80;66.60;;;;;;5000654;28;20182;-87
2022/03/24 07:31:37;;;;;;;24.57;17.57;;;7.90;66.70;;;;;;5009843;28;20194;-88
2022/03/24 07:34:04;;;;;;;20.33;16.60;;;8.00;66.80;;;;;;5004919;28;20206;-87
2022/03/24 07:36:31;;;;;;;23.33;19.43;;;8.00;65.50;;;;;;4993269;28;20213;-87
2022/03/24 07:38:58;;;;;;;19.03;16.03;;;8.10;65.70;;;;;;5002128;28;20198;-88
2022/03/24 07:41:24;;;;;;;22.43;17.00;;;8.20;64.90;;;;;;4984388;28;20280;-88
2022/03/24 07:43:50;;;;;;;21.07;17.93;;;8.30;65.10;;;;;;4998300;28;20195;-89
2022/03/24 07:46:16;;;;;;;31.17;18.30;;;8.40;64.70;;;;;;4997565;28;20214;-89
2022/03/24 07:48:47;;;;;;;17.17;15.57;;;8.40;64.20;;;;;;4999224;28;20218;-88
2022/03/24 07:51:13;;;;;;;20.13;18.03;;;8.40;62.90;;;;;;4993759;28;20175;-88
2022/03/24 07:53:47;;;;;;;20.53;17.97;;;8.60;62.70;;;;;;4999946;28;20210;-89
2022/03/24 07:56:18;;;;;;;17.77;16.00;;;8.70;61.70;;;;;;4993567;28;20297;-88
2022/03/24 07:58:44;;;;;;;19.87;17.20;;;8.70;62.60;;;;;;4998164;28;20191;-88
2022/03/24 08:01:13;;;;;;;18.63;16.23;;;8.80;62.80;;;;;;4984618;28;20190;-88
2022/03/24 08:03:39;;;;;;;20.30;17.87;;;8.80;61.80;;;;;;4984419;28;20210;-88
2022/03/24 08:06:05;;;;;;;24.60;18.60;;;8.90;61.90;;;;;;4985498;28;20241;-88
2022/03/24 08:08:31;;;;;;;22.33;18.53;;;8.80;62.90;;;;;;4999639;28;20221;-88
2022/03/24 08:10:58;;;;;;;26.80;18.27;;;8.80;62.50;;;;;;5001891;28;20198;-88
2022/03/24 08:13:24;;;;;;;17.73;15.93;;;8.90;62.20;;;;;;4981779;28;20254;-88
2022/03/24 08:15:51;;;;;;;19.60;17.17;;;9.00;61.90;;;;;;4999821;28;20265;-89
2022/03/24 08:18:18;;;;;;;22.70;17.20;;;9.30;61.40;;;;;;4999247;28;20190;-88
2022/03/24 08:20:49;;;;;;;20.40;18.27;;;9.30;61.50;;;;;;5002941;28;20246;-87
2022/03/24 08:23:16;;;;;;;22.30;18.97;;;9.40;59.70;;;;;;5001515;28;20197;-87
2022/03/24 08:25:44;;;;;;;19.40;16.50;;;9.50;59.50;;;;;;4979929;28;20207;-87
2022/03/24 08:28:10;;;;;;;19.83;17.83;;;9.60;59.20;;;;;;4993252;28;20273;-88
2022/03/24 08:30:37;;;;;;;20.70;18.57;;;9.80;57.90;;;;;;4988555;28;20178;-90
2022/03/24 08:33:03;;;;;;;21.70;18.03;;;9.90;57.20;;;;;;4994440;28;20221;-88
2022/03/24 08:35:29;;;;;;;21.97;19.20;;;10.00;57.60;;;;;;4996643;28;20216;-88
2022/03/24 08:37:55;;;;;;;26.57;20.47;;;10.10;56.80;;;;;;4962362;28;20195;-88
2022/03/24 08:40:22;;;;;;;24.50;20.63;;;10.30;56.00;;;;;;4996373;28;20191;-88
2022/03/24 08:42:48;;;;;;;25.73;21.03;;;10.40;55.40;;;;;;4996860;28;20270;-89
2022/03/24 08:45:15;;;;;;;23.73;21.23;;;10.60;54.80;;;;;;4980339;28;20231;-88
2022/03/24 08:47:41;;;;;;;27.67;21.53;;;10.80;54.60;;;;;;5006171;28;20205;-87
2022/03/24 08:50:09;;;;;;;25.63;21.70;;;10.90;53.90;;;;;;4998837;28;20224;-88
2022/03/24 08:52:35;;;;;;;23.73;19.83;;;11.00;54.10;;;;;;5006192;28;20274;-89
2022/03/24 08:55:02;;;;;;;22.90;19.87;;;11.10;53.80;;;;;;4996671;28;20182;-87
2022/03/24 08:57:28;;;;;;;22.27;19.77;;;11.40;54.20;;;;;;4999197;28;20212;-89
2022/03/24 08:59:54;;;;;;;23.93;21.43;;;11.40;55.00;;;;;;5005731;28;20257;-86
2022/03/24 09:02:20;;;;;;;22.57;19.87;;;11.70;51.70;;;;;;4988475;28;20229;-88
2022/03/24 09:04:49;;;;;;;25.43;21.00;;;11.70;50.00;;;;;;5000095;28;20218;-87
2022/03/24 09:07:16;;;;;;;33.23;22.63;;;12.00;47.40;;;;;;5001781;28;20218;-88
2022/03/24 09:09:42;;;;;;;23.70;21.10;;;12.10;46.10;;;;;;4967912;28;20832;-87
2022/03/24 09:12:12;;;;;;;23.70;21.20;;;12.30;46.20;;;;;;4996390;28;20187;-88
2022/03/24 09:14:42;;;;;;;27.93;21.83;;;12.60;43.70;;;;;;4995400;28;20203;-87
2022/03/24 09:17:08;;;;;;;23.87;21.33;;;12.80;41.20;;;;;;5000666;28;20209;-88
2022/03/24 09:19:35;;;;;;;26.07;23.20;;;12.90;40.80;;;;;;4995030;28;20192;-88
2022/03/24 09:22:04;;;;;;;25.57;22.63;;;13.10;40.50;;;;;;5005563;28;20231;-90
2022/03/24 09:24:30;;;;;;;26.50;22.90;;;13.20;40.10;;;;;;5008609;28;20236;-88
2022/03/24 09:26:56;;;;;;;28.63;24.10;;;13.40;39.90;;;;;;4993229;28;20702;-88
2022/03/24 09:29:22;;;;;;;30.73;24.70;;;13.60;40.20;;;;;;4990945;28;20187;-87
2022/03/24 09:31:49;;;;;;;32.17;25.17;;;13.70;40.20;;;;;;4992635;28;20206;-87
2022/03/24 09:34:15;;;;;;;29.53;26.43;;;13.90;39.80;;;;;;4992074;28;20681;-88
2022/03/24 09:36:41;;;;;;;30.63;25.03;;;14.10;39.70;;;;;;4988235;28;20218;-88
2022/03/24 09:39:07;;;;;;;27.67;24.70;;;14.30;39.10;;;;;;4988239;28;20206;-87
2022/03/24 09:41:35;;;;;;;27.13;23.27;;;14.50;38.10;;;;;;4998503;28;21101;-87
2022/03/24 09:44:02;;;;;;;26.57;23.53;;;14.50;37.90;;;;;;4995818;28;20220;-91
2022/03/24 09:46:29;;;;;;;25.73;22.47;;;14.70;36.70;;;;;;5002002;28;20330;-88
2022/03/24 09:48:55;;;;;;;29.73;23.40;;;14.90;36.50;;;;;;5000741;28;20196;-87
2022/03/24 09:51:26;;;;;;;26.23;23.30;;;14.90;36.50;;;;;;5003943;28;20246;-87
2022/03/24 09:53:52;;;;;;;26.67;22.37;;;15.10;35.70;;;;;;4990480;28;20189;-87
2022/03/24 09:56:18;;;;;;;25.27;22.70;;;15.30;35.30;;;;;;4972506;28;20729;-89
2022/03/24 09:58:44;;;;;;;24.47;21.90;;;15.40;35.10;;;;;;4987604;28;21084;-89
2022/03/24 10:01:14;;;;;;;25.50;22.63;;;15.70;34.40;;;;;;4987017;28;20193;-89
2022/03/24 10:04:00;;;;;;;24.97;22.37;;;15.70;33.70;;;;;;4985130;28;20551;-89
2022/03/24 10:06:25;;;;;;;24.60;22.07;;;15.90;33.90;;;;;;4988661;28;20225;-88
2022/03/24 10:08:51;;;;;;;23.33;20.93;;;16.10;32.10;;;;;;4987995;28;20192;-90
2022/03/24 10:11:17;;;;;;;24.50;21.97;;;16.10;32.50;;;;;;4971222;28;20191;-88
2022/03/24 10:13:51;;;;;;;24.07;21.77;;;16.00;32.80;;;;;;4988527;28;20197;-89
2022/03/24 10:16:41;;;;;;;23.50;21.00;;;16.20;31.50;;;;;;4989846;28;20516;-89
2022/03/24 10:19:14;;;;;;;23.73;21.23;;;16.30;31.50;;;;;;4974220;28;20202;-90
2022/03/24 10:21:46;;;;;;;24.13;21.77;;;16.60;32.10;;;;;;4984493;28;20186;-90
2022/03/24 10:24:22;;;;;;;27.63;22.90;;;16.60;31.00;;;;;;4984776;28;20186;-90
2022/03/24 10:26:50;;;;;;;25.87;23.20;;;16.80;30.40;;;;;;4966460;28;20228;-90
2022/03/24 10:29:23;;;;;;;26.03;23.43;;;17.00;30.90;;;;;;4987087;28;20181;-89
2022/03/24 10:31:59;;;;;;;24.37;22.07;;;17.10;29.80;;;;;;4986899;28;20684;-90
2022/03/24 10:34:33;;;;;;;23.50;21.17;;;17.30;29.80;;;;;;4986491;28;20183;-89
2022/03/24 10:37:07;;;;;;;27.33;24.40;;;17.60;29.40;;;;;;4987703;28;20618;-89
2022/03/24 10:39:35;;;;;;;27.27;24.57;;;17.70;30.10;;;;;;5007963;28;20202;-90
2022/03/24 10:42:17;;;;;;;23.77;21.17;;;17.90;29.70;;;;;;5005607;28;20192;-90
2022/03/24 10:45:12;;;;;;;26.50;23.00;;;17.90;29.80;;;;;;5007169;28;20255;-90
2022/03/24 10:47:41;;;;;;;23.40;20.97;;;18.20;29.60;;;;;;5001874;28;20194;-89
2022/03/24 10:50:31;;;;;;;27.73;23.60;;;18.30;28.60;;;;;;4999520;28;20181;-90
2022/03/24 10:53:05;;;;;;;25.63;22.97;;;18.30;29.80;;;;;;5001734;28;20186;-89
2022/03/24 10:55:43;;;;;;;27.37;24.63;;;18.50;29.00;;;;;;5003023;28;20232;-89
2022/03/24 10:58:22;;;;;;;25.57;22.97;;;18.70;28.90;;;;;;5002878;28;20186;-89
2022/03/24 11:00:51;;;;;;;26.80;24.10;;;18.90;29.80;;;;;;5005039;28;20261;-89
2022/03/24 11:03:17;;;;;;;29.80;26.67;;;19.20;29.30;;;;;;4989338;28;20198;-90
2022/03/24 11:05:43;;;;;;;27.90;24.92;;;19.40;29.80;;;;;;5001176;28;20224;-90
2022/03/24 11:08:09;;;;;;;31.00;24.98;;;19.50;30.50;;;;;;4998982;28;20204;-89
2022/03/24 11:10:49;;;;;;;28.08;24.70;;;19.60;28.90;;;;;;4975648;28;20687;-89
2022/03/24 11:13:27;;;;;;;27.25;24.55;;;19.90;28.70;;;;;;4992662;28;20193;-89
2022/03/24 11:15:53;;;;;;;28.98;25.30;;;19.70;28.50;;;;;;4994949;28;20209;-89
2022/03/24 11:18:22;;;;;;;28.90;25.80;;;19.80;28.50;;;;;;4987248;28;20194;-89
2022/03/24 11:20:49;;;;;;;29.47;26.33;;;19.40;29.20;;;;;;4980056;28;20213;-89
2022/03/24 11:23:24;;;;;;;29.13;26.10;;;19.60;29.40;;;;;;4974583;28;20227;-89
2022/03/24 11:25:53;;;;;;;27.80;25.00;;;19.70;29.00;;;;;;4990347;28;20580;-89
2022/03/24 11:28:21;;;;;;;29.67;26.42;;;19.80;28.90;;;;;;4996115;28;20248;-89
2022/03/24 11:30:46;;;;;;;28.35;25.48;;;20.00;28.50;;;;;;4992310;28;20189;-89
2022/03/24 11:33:13;;;;;;;26.58;23.88;;;20.00;27.90;;;;;;4992462;28;20199;-89
2022/03/24 11:35:40;;;;;;;26.85;24.05;;;20.00;27.40;;;;;;4989180;28;20217;-89
2022/03/24 11:38:06;;;;;;;27.35;24.42;;;20.70;27.60;;;;;;4979952;28;20258;-89
2022/03/24 11:40:34;;;;;;;26.42;23.60;;;21.10;26.90;;;;;;4989249;28;20194;-89
2022/03/24 11:43:16;;;;;;;29.33;25.42;;;21.00;26.30;;;;;;5005218;28;20600;-89
2022/03/24 11:46:04;;;;;;;26.40;23.52;;;20.90;26.70;;;;;;4993066;28;20246;-89
2022/03/24 11:48:43;;;;;;;26.77;24.17;;;21.20;26.40;;;;;;4993957;28;20211;-89
2022/03/24 11:51:16;;;;;;;24.35;21.88;;;21.10;26.30;;;;;;4994373;28;20186;-89
2022/03/24 11:53:43;;;;;;;25.90;23.40;;;21.40;25.50;;;;;;4982000;28;20190;-89
2022/03/24 11:56:09;;;;;;;26.02;23.42;;;21.50;25.20;;;;;;4997852;28;20217;-89
2022/03/24 11:58:36;;;;;;;25.88;23.48;;;21.60;25.60;;;;;;4975838;28;20187;-89
2022/03/24 12:01:17;;;;;;;25.42;22.77;;;21.80;25.60;;;;;;5010315;28;20182;-89
2022/03/24 12:03:43;;;;;;;25.15;22.85;;;21.80;25.10;;;;;;5008067;28;20176;-89
2022/03/24 12:06:14;;;;;;;24.55;22.15;;;22.00;24.90;;;;;;5019091;28;20221;-89
2022/03/24 12:08:59;;;;;;;26.35;23.95;;;22.10;24.50;;;;;;4971416;28;20287;-89
2022/03/24 12:11:31;;;;;;;26.38;23.65;;;22.10;24.50;;;;;;4981761;28;20186;-89
2022/03/24 12:14:11;;;;;;;23.83;21.27;;;22.10;24.40;;;;;;5002710;28;20232;-89
2022/03/24 12:16:41;;;;;;;23.75;21.52;;;22.40;23.20;;;;;;5001582;28;20566;-89
2022/03/24 12:19:35;;;;;;;25.10;22.83;;;22.50;23.70;;;;;;5003206;28;20205;-89
2022/03/24 12:22:01;;;;;;;23.48;21.48;;;22.60;23.70;;;;;;4982611;28;20331;-89
2022/03/24 12:24:37;;;;;;;22.55;20.30;;;22.70;23.40;;;;;;4995516;28;20219;-88
2022/03/24 12:27:05;;;;;;;22.80;20.60;;;22.50;22.40;;;;;;4994062;28;20215;-87
2022/03/24 12:29:32;;;;;;;24.80;22.48;;;22.70;22.60;;;;;;4974725;28;20325;-88
2022/03/24 12:32:06;;;;;;;23.73;21.55;;;22.60;23.10;;;;;;4994754;28;20186;-88
2022/03/24 12:34:46;;;;;;;22.50;20.48;;;23.10;22.90;;;;;;4992759;28;20213;-90
2022/03/24 12:37:29;;;;;;;19.65;17.92;;;23.40;22.40;;;;;;4996484;28;20197;-89